Time;durP1;ratioP1;P1;durP2;ratioP2;P2;SDS_P1;SDS_P2;PMS_P1;PMS_P2;Temp;Humidity;BMP_temperature;BMP_pressure;BME280_temperature;BME280_humidity;BME280_pressure;Samples;Min_cycle;Max_cycle;Signal;HPM_P1;HPM_P2
2021/06/18 00:00:38;;;;;;;11.53;10.67;;;24.00;1.00;;;;;;5060612;28;20432;-80
2021/06/18 00:03:06;;;;;;;12.60;11.70;;;24.00;1.00;;;;;;5055337;28;20436;-80
2021/06/18 00:05:33;;;;;;;12.80;11.80;;;24.00;1.00;;;;;;5055584;28;21501;-80
2021/06/18 00:08:01;;;;;;;13.50;12.43;;;23.90;1.00;;;;;;5056523;28;20476;-80
2021/06/18 00:10:28;;;;;;;12.80;11.80;;;23.90;1.00;;;;;;5030046;28;20448;-81
2021/06/18 00:12:56;;;;;;;12.87;11.77;;;23.80;1.00;;;;;;5035506;28;20447;-80
2021/06/18 00:15:22;;;;;;;13.37;12.37;;;23.80;1.00;;;;;;5028122;28;20428;-80
2021/06/18 00:17:50;;;;;;;13.60;12.57;;;23.70;1.00;;;;;;5032779;28;20468;-81
2021/06/18 00:20:17;;;;;;;12.90;11.90;;;23.70;1.00;;;;;;5021979;28;20432;-80
2021/06/18 00:22:45;;;;;;;12.83;11.83;;;23.60;1.00;;;;;;5047580;28;20455;-81
2021/06/18 00:25:14;;;;;;;12.67;11.67;;;23.60;1.00;;;;;;5037162;28;20515;-81
2021/06/18 00:27:41;;;;;;;12.23;11.20;;;23.60;1.00;;;;;;5031692;28;20473;-81
2021/06/18 00:30:11;;;;;;;12.97;11.87;;;23.50;1.00;;;;;;5026638;28;20579;-81
2021/06/18 00:32:37;;;;;;;12.83;11.83;;;23.50;1.00;;;;;;5033204;28;20793;-80
2021/06/18 00:35:05;;;;;;;13.60;12.60;;;23.50;1.00;;;;;;5034645;28;20475;-80
2021/06/18 00:37:32;;;;;;;13.53;12.43;;;23.50;1.00;;;;;;5028292;28;20466;-80
2021/06/18 00:39:59;;;;;;;14.40;13.20;;;23.50;1.00;;;;;;5033509;28;20449;-80
2021/06/18 00:42:28;;;;;;;13.33;12.23;;;23.50;1.00;;;;;;5031241;28;20608;-79
2021/06/18 00:44:54;;;;;;;13.80;11.90;;;23.50;1.00;;;;;;5034622;28;20531;-80
2021/06/18 00:47:23;;;;;;;13.77;12.57;;;23.40;1.00;;;;;;5027760;28;20431;-80
2021/06/18 00:49:51;;;;;;;13.17;12.20;;;23.40;1.00;;;;;;5033228;28;20451;-80
2021/06/18 00:52:18;;;;;;;14.10;13.00;;;23.30;1.00;;;;;;5031107;28;20562;-80
2021/06/18 00:54:46;;;;;;;13.00;12.10;;;23.30;1.00;;;;;;5017353;28;20543;-80
2021/06/18 00:57:14;;;;;;;12.90;11.90;;;23.20;1.00;;;;;;5033463;28;20938;-80
2021/06/18 00:59:42;;;;;;;13.93;12.90;;;23.20;1.00;;;;;;5037656;28;20437;-81
2021/06/18 01:02:09;;;;;;;14.33;13.27;;;23.10;1.00;;;;;;5021684;28;20463;-79
2021/06/18 01:04:37;;;;;;;12.80;11.90;;;23.10;1.00;;;;;;5032178;28;20591;-80
2021/06/18 01:07:08;;;;;;;14.40;13.30;;;23.10;1.00;;;;;;5033640;28;21333;-81
2021/06/18 01:09:43;;;;;;;13.20;12.30;;;23.00;1.00;;;;;;5032626;28;20543;-81
2021/06/18 01:12:15;;;;;;;15.33;13.93;;;23.00;1.00;;;;;;5034585;28;20446;-81
2021/06/18 01:14:58;;;;;;;13.10;12.10;;;22.90;1.00;;;;;;5030789;28;20464;-81
2021/06/18 01:17:28;;;;;;;14.97;13.87;;;22.80;1.00;;;;;;5033447;28;20463;-82
2021/06/18 01:20:10;;;;;;;14.27;13.37;;;22.80;1.00;;;;;;5035644;28;21840;-82
2021/06/18 01:22:38;;;;;;;14.07;13.10;;;22.70;1.00;;;;;;5036928;28;20463;-81
2021/06/18 01:25:13;;;;;;;14.73;13.70;;;22.70;1.00;;;;;;5038909;28;20464;-82
2021/06/18 01:27:44;;;;;;;14.10;13.10;;;22.70;1.00;;;;;;5042892;28;20529;-81
2021/06/18 01:30:15;;;;;;;14.57;13.47;;;22.60;1.00;;;;;;5045581;28;20533;-80
2021/06/18 01:32:48;;;;;;;14.20;13.20;;;22.60;1.00;;;;;;5058309;28;20427;-78
2021/06/18 01:35:17;;;;;;;14.73;13.63;;;22.60;1.00;;;;;;5059926;28;20524;-77
2021/06/18 01:37:47;;;;;;;14.60;13.50;;;22.60;1.00;;;;;;5037654;28;20451;-79
2021/06/18 01:40:16;;;;;;;15.60;14.40;;;22.50;1.00;;;;;;5032584;28;20462;-77
2021/06/18 01:42:44;;;;;;;15.00;13.77;;;22.50;1.00;;;;;;5032116;28;20532;-80
2021/06/18 01:45:16;;;;;;;15.10;14.00;;;22.40;1.00;;;;;;5033293;28;20607;-78
2021/06/18 01:47:44;;;;;;;14.47;13.17;;;22.40;1.00;;;;;;5026597;28;20461;-79
2021/06/18 01:50:14;;;;;;;15.00;13.93;;;22.40;1.00;;;;;;5032328;28;20465;-78
2021/06/18 01:52:43;;;;;;;15.20;14.00;;;22.30;1.00;;;;;;5018968;28;20471;-79
2021/06/18 01:55:11;;;;;;;15.07;13.87;;;22.30;1.00;;;;;;5029563;28;20554;-79
2021/06/18 01:57:39;;;;;;;16.10;14.70;;;22.20;1.00;;;;;;5032418;28;20466;-78
2021/06/18 02:00:08;;;;;;;15.70;14.33;;;22.20;1.00;;;;;;5031442;28;20457;-79
2021/06/18 02:02:37;;;;;;;15.60;14.37;;;22.20;1.00;;;;;;5033582;28;20439;-78
2021/06/18 02:05:07;;;;;;;15.87;14.67;;;22.20;1.00;;;;;;5033222;28;20458;-78
2021/06/18 02:07:35;;;;;;;14.60;13.60;;;22.20;1.00;;;;;;5033706;28;20498;-76
2021/06/18 02:10:04;;;;;;;14.90;13.80;;;22.10;1.00;;;;;;5034817;28;20434;-79
2021/06/18 02:12:32;;;;;;;15.17;13.90;;;22.10;1.00;;;;;;5033017;28;20540;-79
2021/06/18 02:14:59;;;;;;;16.20;14.90;;;22.10;1.00;;;;;;5031547;28;20985;-79
2021/06/18 02:17:28;;;;;;;16.83;15.33;;;22.00;1.00;;;;;;5030299;28;20418;-79
2021/06/18 02:19:57;;;;;;;15.30;14.20;;;22.00;1.00;;;;;;5028264;28;21404;-81
2021/06/18 02:22:24;;;;;;;16.40;15.10;;;22.00;1.00;;;;;;5032588;28;20454;-80
2021/06/18 02:24:53;;;;;;;15.87;14.67;;;22.00;1.00;;;;;;5028897;28;20457;-80
2021/06/18 02:27:20;;;;;;;16.10;14.80;;;21.90;1.00;;;;;;5031373;28;21319;-81
2021/06/18 02:29:47;;;;;;;15.50;14.00;;;21.90;1.00;;;;;;5030641;28;24136;-80
2021/06/18 02:32:15;;;;;;;15.80;14.57;;;21.90;1.00;;;;;;5034163;28;20423;-78
2021/06/18 02:34:42;;;;;;;15.23;14.10;;;21.90;1.00;;;;;;5032521;28;21670;-79
2021/06/18 02:37:12;;;;;;;15.70;14.57;;;21.90;1.00;;;;;;5030377;28;22771;-80
2021/06/18 02:39:39;;;;;;;15.80;14.50;;;21.80;1.00;;;;;;5029940;28;20435;-80
2021/06/18 02:42:07;;;;;;;15.83;14.63;;;21.80;1.00;;;;;;5032139;28;20953;-77
2021/06/18 02:44:33;;;;;;;17.13;15.80;;;21.80;1.00;;;;;;5042526;28;20411;-79
2021/06/18 02:47:07;;;;;;;17.20;15.80;;;21.70;1.00;;;;;;5056019;28;21152;-78
2021/06/18 02:49:41;;;;;;;15.67;14.57;;;21.70;1.00;;;;;;5049345;28;20638;-80
2021/06/18 02:52:16;;;;;;;17.33;15.93;;;21.60;1.00;;;;;;5038521;28;21041;-78
2021/06/18 02:54:46;;;;;;;17.63;16.23;;;21.60;1.00;;;;;;5037156;28;20529;-80
2021/06/18 02:57:20;;;;;;;17.07;15.73;;;21.60;1.00;;;;;;5048982;28;20497;-80
2021/06/18 02:59:52;;;;;;;17.30;16.00;;;21.50;1.00;;;;;;5028275;28;20479;-78
2021/06/18 03:02:25;;;;;;;17.33;15.93;;;21.50;1.00;;;;;;5031071;28;20552;-79
2021/06/18 03:04:56;;;;;;;17.73;16.23;;;21.50;1.00;;;;;;5030625;28;20487;-80
2021/06/18 03:07:28;;;;;;;18.93;17.00;;;21.50;1.00;;;;;;5032133;28;20532;-79
2021/06/18 03:09:59;;;;;;;18.10;16.60;;;21.50;1.00;;;;;;5032729;28;20452;-78
2021/06/18 03:12:27;;;;;;;17.53;16.33;;;21.50;1.00;;;;;;5030542;28;20476;-80
2021/06/18 03:14:56;;;;;;;17.40;15.90;;;21.50;1.00;;;;;;5035867;28;21003;-78
2021/06/18 03:17:24;;;;;;;21.67;16.13;;;21.50;1.00;;;;;;5033264;28;20489;-78
2021/06/18 03:19:54;;;;;;;16.83;15.53;;;21.50;1.00;;;;;;5030657;28;20446;-78
2021/06/18 03:22:24;;;;;;;18.67;17.13;;;21.50;1.00;;;;;;5034252;28;20442;-78
2021/06/18 03:24:52;;;;;;;17.40;16.07;;;21.50;1.00;;;;;;5055942;28;20490;-77
2021/06/18 03:27:20;;;;;;;17.37;15.87;;;21.50;1.00;;;;;;5049480;28;20460;-78
2021/06/18 03:29:49;;;;;;;18.33;16.83;;;21.50;1.00;;;;;;5030658;28;20461;-78
2021/06/18 03:32:17;;;;;;;17.63;16.23;;;21.50;1.00;;;;;;5035017;28;20476;-78
2021/06/18 03:34:44;;;;;;;18.27;16.87;;;21.50;1.00;;;;;;5031177;28;20451;-79
2021/06/18 03:37:12;;;;;;;18.37;16.73;;;21.50;1.00;;;;;;5032622;28;20469;-78
2021/06/18 03:39:41;;;;;;;17.33;16.03;;;21.50;1.00;;;;;;5031168;28;20457;-80
2021/06/18 03:42:08;;;;;;;18.07;16.67;;;21.50;1.00;;;;;;5030926;28;20469;-78
2021/06/18 03:44:35;;;;;;;18.00;16.60;;;21.60;1.00;;;;;;5031343;28;20861;-79
2021/06/18 03:47:03;;;;;;;18.77;17.17;;;21.60;1.00;;;;;;5030727;28;20534;-81
2021/06/18 03:49:30;;;;;;;17.53;16.03;;;21.60;1.00;;;;;;5031682;28;20478;-80
2021/06/18 03:51:57;;;;;;;19.37;17.97;;;21.60;1.00;;;;;;5029745;28;20494;-79
2021/06/18 03:54:24;;;;;;;17.73;16.33;;;21.60;1.00;;;;;;5026957;28;20413;-77
2021/06/18 03:56:53;;;;;;;19.17;17.07;;;21.60;1.00;;;;;;5030104;28;20468;-78
2021/06/18 03:59:21;;;;;;;19.53;18.03;;;21.60;1.00;;;;;;5030616;28;20536;-78
2021/06/18 04:01:53;;;;;;;19.90;18.30;;;21.70;1.00;;;;;;5032345;28;20469;-77
2021/06/18 04:04:21;;;;;;;19.17;17.67;;;21.70;1.00;;;;;;5009767;28;20444;-79
2021/06/18 04:06:49;;;;;;;21.63;19.57;;;21.70;1.00;;;;;;5027721;28;20493;-80
2021/06/18 04:09:18;;;;;;;18.53;17.10;;;21.70;1.00;;;;;;5031821;28;20480;-79
2021/06/18 04:11:45;;;;;;;19.37;17.40;;;21.70;1.00;;;;;;5009495;28;21016;-83
2021/06/18 04:14:14;;;;;;;19.43;17.47;;;21.70;1.00;;;;;;5022685;28;20407;-79
2021/06/18 04:16:41;;;;;;;18.87;17.20;;;21.80;1.00;;;;;;5034703;28;20474;-79
2021/06/18 04:19:08;;;;;;;19.13;17.63;;;21.80;1.00;;;;;;5033454;28;20441;-79
2021/06/18 04:21:41;;;;;;;17.53;16.13;;;21.80;1.00;;;;;;5036441;28;20467;-79
2021/06/18 04:24:09;;;;;;;17.50;16.17;;;21.80;1.00;;;;;;5036953;28;20424;-81
2021/06/18 04:26:36;;;;;;;20.20;18.63;;;21.90;1.00;;;;;;5039745;28;20474;-79
2021/06/18 04:29:03;;;;;;;19.97;18.10;;;21.80;1.00;;;;;;5041997;28;20472;-81
2021/06/18 04:31:35;;;;;;;19.70;17.90;;;21.80;1.00;;;;;;5041969;28;20467;-80
2021/06/18 04:34:03;;;;;;;20.53;18.57;;;21.90;1.00;;;;;;5038731;28;20451;-80
2021/06/18 04:36:31;;;;;;;20.33;18.47;;;21.90;1.00;;;;;;5055462;28;20482;-79
2021/06/18 04:38:59;;;;;;;18.90;17.30;;;22.00;1.00;;;;;;5056381;28;20429;-77
2021/06/18 04:41:26;;;;;;;18.13;16.77;;;22.00;1.00;;;;;;5043965;28;20480;-80
2021/06/18 04:43:56;;;;;;;20.77;19.07;;;22.00;1.00;;;;;;5044642;28;20454;-79
2021/06/18 04:46:22;;;;;;;18.93;17.33;;;22.10;1.00;;;;;;5030925;28;20467;-74
2021/06/18 04:48:51;;;;;;;19.30;17.70;;;22.10;1.00;;;;;;5030592;28;20732;-73
2021/06/18 04:51:18;;;;;;;20.40;18.50;;;22.20;1.00;;;;;;5027746;28;21964;-74
2021/06/18 04:53:45;;;;;;;19.10;17.43;;;22.30;1.00;;;;;;5014462;28;20450;-73
2021/06/18 04:56:13;;;;;;;18.77;17.40;;;22.30;1.00;;;;;;5029177;28;20465;-74
2021/06/18 04:58:40;;;;;;;18.83;17.13;;;22.40;1.00;;;;;;5029525;28;20529;-74
2021/06/18 05:01:07;;;;;;;18.10;16.37;;;22.50;1.00;;;;;;5029470;28;20660;-76
2021/06/18 05:03:34;;;;;;;18.73;17.20;;;22.60;1.00;;;;;;5029636;28;21383;-75
2021/06/18 05:06:03;;;;;;;16.80;15.13;;;22.60;1.00;;;;;;5032116;28;20466;-75
2021/06/18 05:08:29;;;;;;;16.60;15.40;;;22.70;1.00;;;;;;5029745;28;20601;-75
2021/06/18 05:10:56;;;;;;;16.10;14.80;;;22.90;1.00;;;;;;5026381;28;21335;-75
2021/06/18 05:13:23;;;;;;;23.03;21.13;;;22.90;1.00;;;;;;5028879;28;20459;-74
2021/06/18 05:15:50;;;;;;;17.00;15.50;;;23.00;1.00;;;;;;5026794;28;20485;-73
2021/06/18 05:18:17;;;;;;;17.37;15.73;;;23.20;1.00;;;;;;5031619;28;20837;-77
2021/06/18 05:20:44;;;;;;;16.20;15.00;;;23.30;1.00;;;;;;5029187;28;20440;-76
2021/06/18 05:23:12;;;;;;;18.33;16.73;;;23.40;1.00;;;;;;5032584;28;20465;-77
2021/06/18 05:25:39;;;;;;;16.23;14.70;;;23.50;1.00;;;;;;5033561;28;20486;-77
2021/06/18 05:28:05;;;;;;;16.70;15.07;;;23.60;1.00;;;;;;5029796;28;20440;-76
2021/06/18 05:30:32;;;;;;;15.60;14.47;;;23.70;1.00;;;;;;5034235;28;20832;-82
2021/06/18 05:32:59;;;;;;;16.13;14.70;;;23.80;1.00;;;;;;5041960;28;20518;-81
2021/06/18 05:35:26;;;;;;;15.80;14.10;;;23.90;1.00;;;;;;5038471;28;20492;-81
2021/06/18 05:37:53;;;;;;;13.37;12.37;;;24.00;1.00;;;;;;5039740;28;20644;-81
2021/06/18 05:40:21;;;;;;;13.90;12.60;;;24.10;1.00;;;;;;5044367;28;20434;-82
2021/06/18 05:42:49;;;;;;;12.77;11.60;;;24.20;1.00;;;;;;5040346;28;20459;-82
2021/06/18 05:45:16;;;;;;;14.30;12.83;;;24.30;1.00;;;;;;5046989;28;21632;-80
2021/06/18 05:47:43;;;;;;;13.67;12.57;;;24.40;1.00;;;;;;5025636;28;20441;-79
2021/06/18 05:50:11;;;;;;;13.10;11.70;;;24.60;1.00;;;;;;5040263;28;20949;-82
2021/06/18 05:52:39;;;;;;;11.83;10.73;;;24.70;1.00;;;;;;5023914;28;20459;-78
2021/06/18 05:55:07;;;;;;;13.00;11.40;;;24.90;1.00;;;;;;5038868;28;20453;-78
2021/06/18 05:57:38;;;;;;;12.00;11.10;;;25.00;1.00;;;;;;5039987;28;21424;-82
2021/06/18 06:00:06;;;;;;;13.67;12.50;;;25.00;1.00;;;;;;5041309;28;20486;-81
2021/06/18 06:02:34;;;;;;;12.30;11.00;;;25.10;1.00;;;;;;5037919;28;20537;-79
2021/06/18 06:05:00;;;;;;;12.87;11.27;;;25.30;1.00;;;;;;5036363;28;20440;-81
2021/06/18 06:07:27;;;;;;;11.47;10.40;;;25.40;1.00;;;;;;5035842;28;20444;-80
2021/06/18 06:09:54;;;;;;;11.03;10.17;;;25.50;1.00;;;;;;5037622;28;20476;-80
2021/06/18 06:12:21;;;;;;;9.90;9.10;;;25.60;1.00;;;;;;5040295;28;20439;-80
2021/06/18 06:14:49;;;;;;;10.87;9.93;;;25.80;1.00;;;;;;5024131;28;20446;-79
2021/06/18 06:17:16;;;;;;;9.97;8.90;;;25.80;1.00;;;;;;5044258;28;20460;-79
2021/06/18 06:19:42;;;;;;;10.30;9.30;;;25.90;1.00;;;;;;5039299;28;20476;-79
2021/06/18 06:22:09;;;;;;;9.10;8.30;;;26.00;1.00;;;;;;5039563;28;20452;-78
2021/06/18 06:24:36;;;;;;;9.00;8.13;;;26.10;1.00;;;;;;5043339;28;20543;-79
2021/06/18 06:27:04;;;;;;;10.70;9.87;;;26.20;1.00;;;;;;5041629;28;20462;-79
2021/06/18 06:29:31;;;;;;;10.03;9.20;;;26.30;1.00;;;;;;5027836;28;20782;-79
2021/06/18 06:31:59;;;;;;;11.00;8.60;;;26.40;1.00;;;;;;5054548;28;20446;-78
2021/06/18 06:34:25;;;;;;;9.43;8.63;;;26.60;1.00;;;;;;5055206;28;20477;-81
2021/06/18 06:36:52;;;;;;;8.70;7.47;;;26.70;1.00;;;;;;5041408;28;20466;-80
2021/06/18 06:39:19;;;;;;;8.73;8.00;;;26.70;1.00;;;;;;5024163;28;20496;-80
2021/06/18 06:41:46;;;;;;;8.43;7.80;;;26.80;1.00;;;;;;5047595;28;20532;-80
2021/06/18 06:44:12;;;;;;;13.20;9.90;;;26.90;1.00;;;;;;5042062;28;20433;-80
2021/06/18 06:46:43;;;;;;;16.80;8.60;;;27.00;1.00;;;;;;5039443;28;20512;-78
2021/06/18 06:49:14;;;;;;;10.53;8.63;;;27.00;1.00;;;;;;5048304;28;20424;-80
2021/06/18 06:51:41;;;;;;;9.70;8.70;;;27.20;1.00;;;;;;5029064;28;20449;-79
2021/06/18 06:54:08;;;;;;;7.70;7.00;;;27.30;1.00;;;;;;5053331;28;20887;-79
2021/06/18 06:56:37;;;;;;;11.63;8.23;;;27.30;1.00;;;;;;5054626;28;20446;-79
2021/06/18 06:59:04;;;;;;;7.87;7.17;;;27.40;1.00;;;;;;5052964;28;20429;-79
2021/06/18 07:01:31;;;;;;;7.90;7.20;;;27.50;1.00;;;;;;5056183;28;20449;-79
2021/06/18 07:03:59;;;;;;;11.33;8.77;;;27.60;1.00;;;;;;5035849;28;21830;-79
2021/06/18 07:06:27;;;;;;;8.60;7.00;;;27.70;1.00;;;;;;5043930;28;20539;-80
2021/06/18 07:08:54;;;;;;;7.20;6.50;;;27.90;1.00;;;;;;5041828;28;20805;-80
2021/06/18 07:11:20;;;;;;;7.40;6.80;;;27.90;1.00;;;;;;5038377;28;20428;-79
2021/06/18 07:13:47;;;;;;;9.27;6.97;;;28.00;1.00;;;;;;5038472;28;20475;-80
2021/06/18 07:16:14;;;;;;;7.67;6.80;;;28.00;1.00;;;;;;5037555;28;20427;-78
2021/06/18 07:18:40;;;;;;;7.13;6.43;;;28.10;1.00;;;;;;5035235;28;20553;-78
2021/06/18 07:21:07;;;;;;;7.10;6.53;;;28.10;1.00;;;;;;5040132;28;20442;-80
2021/06/18 07:23:35;;;;;;;8.33;7.13;;;28.30;1.00;;;;;;5017171;28;20562;-80
2021/06/18 07:26:02;;;;;;;7.40;6.70;;;28.40;1.00;;;;;;5043838;28;20445;-79
2021/06/18 07:28:29;;;;;;;7.33;6.70;;;28.50;1.00;;;;;;5040706;28;21482;-81
2021/06/18 07:30:56;;;;;;;6.30;5.80;;;28.50;1.00;;;;;;5042803;28;20497;-81
2021/06/18 07:33:22;;;;;;;9.07;6.43;;;28.50;1.00;;;;;;5041231;28;20465;-80
2021/06/18 07:35:49;;;;;;;7.13;6.43;;;28.60;1.00;;;;;;5024087;28;21430;-79
2021/06/18 07:38:16;;;;;;;7.17;6.47;;;28.60;1.00;;;;;;5045446;28;20449;-79
2021/06/18 07:40:44;;;;;;;8.70;7.37;;;28.70;1.00;;;;;;5042551;28;20473;-79
2021/06/18 07:43:12;;;;;;;8.00;6.47;;;28.90;1.00;;;;;;5042201;28;20484;-78
2021/06/18 07:45:39;;;;;;;6.87;6.33;;;28.90;1.00;;;;;;5055327;28;20452;-78
2021/06/18 07:48:09;;;;;;;8.20;6.67;;;29.00;1.00;;;;;;5057489;28;20407;-78
2021/06/18 07:50:37;;;;;;;6.40;5.90;;;29.10;1.00;;;;;;5055654;28;20459;-79
2021/06/18 07:53:05;;;;;;;6.40;5.80;;;29.20;1.00;;;;;;5054625;28;20451;-80
2021/06/18 07:55:32;;;;;;;5.97;5.40;;;29.30;1.00;;;;;;5053219;28;20444;-80
2021/06/18 07:58:02;;;;;;;6.13;5.73;;;29.40;1.00;;;;;;5048535;28;20871;-81
2021/06/18 08:00:31;;;;;;;6.70;6.00;;;29.50;1.00;;;;;;5059807;28;20520;-79
2021/06/18 08:02:58;;;;;;;7.13;5.63;;;29.60;1.00;;;;;;5071375;28;20459;-80
2021/06/18 08:05:25;;;;;;;6.87;5.60;;;29.70;1.00;;;;;;5069465;28;20396;-79
2021/06/18 08:07:52;;;;;;;5.87;5.30;;;29.70;1.00;;;;;;5071706;28;20455;-80
2021/06/18 08:10:22;;;;;;;11.90;6.17;;;29.80;1.00;;;;;;5068354;28;20388;-79
2021/06/18 08:12:49;;;;;;;10.47;9.23;;;29.90;1.00;;;;;;5067305;28;20477;-79
2021/06/18 08:15:19;;;;;;;5.30;4.80;;;29.90;1.00;;;;;;5070237;28;20607;-78
2021/06/18 08:17:47;;;;;;;5.90;5.30;;;30.10;1.00;;;;;;5052477;28;20450;-78
2021/06/18 08:20:16;;;;;;;8.50;5.30;;;30.10;1.00;;;;;;5054291;28;20433;-80
2021/06/18 08:22:43;;;;;;;7.13;5.50;;;30.20;1.00;;;;;;5063947;28;20639;-80
2021/06/18 08:25:10;;;;;;;6.00;5.40;;;30.20;1.00;;;;;;5064646;28;20404;-77
2021/06/18 08:27:38;;;;;;;9.73;5.70;;;30.20;1.00;;;;;;5067365;28;20452;-79
2021/06/18 08:30:07;;;;;;;5.17;4.70;;;30.10;1.00;;;;;;5048216;28;20511;-80
2021/06/18 08:32:35;;;;;;;5.10;4.70;;;30.20;1.00;;;;;;5065816;28;20486;-79
2021/06/18 08:35:01;;;;;;;5.90;4.70;;;30.40;1.00;;;;;;5061939;28;20427;-80
2021/06/18 08:37:28;;;;;;;6.13;4.77;;;30.40;1.00;;;;;;5065142;28;20473;-80
2021/06/18 08:39:55;;;;;;;8.80;4.93;;;30.50;1.00;;;;;;5058104;28;20419;-80
2021/06/18 08:42:22;;;;;;;10.60;5.53;;;30.60;1.00;;;;;;5044283;28;20547;-80
2021/06/18 08:44:48;;;;;;;5.33;4.77;;;30.70;1.00;;;;;;5040412;28;20441;-78
2021/06/18 08:47:15;;;;;;;5.80;5.30;;;30.80;1.00;;;;;;5037453;28;20537;-77
2021/06/18 08:49:43;;;;;;;5.70;5.23;;;31.00;1.00;;;;;;5033779;28;20415;-78
2021/06/18 08:52:12;;;;;;;8.17;4.87;;;31.10;1.00;;;;;;5038029;28;20466;-78
2021/06/18 08:54:43;;;;;;;5.23;4.73;;;31.10;1.00;;;;;;5035939;28;20442;-81
2021/06/18 08:57:12;;;;;;;6.80;5.43;;;31.20;1.00;;;;;;5041032;28;20483;-79
2021/06/18 08:59:40;;;;;;;5.70;5.30;;;31.10;1.00;;;;;;5043680;28;20473;-79
2021/06/18 09:02:07;;;;;;;6.03;4.90;;;31.20;1.00;;;;;;5056141;28;20545;-77
2021/06/18 09:04:54;;;;;;;5.63;4.40;;;31.30;1.00;;;;;;5053044;28;20408;-78
2021/06/18 09:07:22;;;;;;;4.80;4.30;;;31.30;1.00;;;;;;5042705;28;20438;-79
2021/06/18 09:09:49;;;;;;;5.57;4.13;;;31.40;1.00;;;;;;5043986;28;20479;-78
2021/06/18 09:12:16;;;;;;;5.60;4.37;;;31.50;1.00;;;;;;5042980;28;20474;-79
2021/06/18 09:14:43;;;;;;;5.07;4.50;;;31.70;1.00;;;;;;5037943;28;20833;-78
2021/06/18 09:17:14;;;;;;;5.27;4.80;;;31.70;1.00;;;;;;5043617;28;20473;-79
2021/06/18 09:19:44;;;;;;;5.10;4.70;;;31.60;1.00;;;;;;5042806;28;21086;-79
2021/06/18 09:22:12;;;;;;;6.10;4.47;;;31.80;1.00;;;;;;5043341;28;20570;-79
2021/06/18 09:24:44;;;;;;;5.00;4.60;;;31.90;1.00;;;;;;5046349;28;20794;-78
2021/06/18 09:27:12;;;;;;;4.70;4.30;;;32.00;1.00;;;;;;5043849;28;20428;-79
2021/06/18 09:29:40;;;;;;;4.33;4.03;;;32.20;1.00;;;;;;5041946;28;20540;-79
2021/06/18 09:32:09;;;;;;;4.43;4.13;;;32.20;1.00;;;;;;5041645;28;20470;-79
2021/06/18 09:34:43;;;;;;;4.50;4.10;;;32.30;1.00;;;;;;5037216;28;20425;-79
2021/06/18 09:37:18;;;;;;;6.10;4.43;;;32.30;1.00;;;;;;5046821;28;20615;-79
2021/06/18 09:39:57;;;;;;;4.80;4.33;;;32.50;1.00;;;;;;5030312;28;21100;-80
2021/06/18 09:42:25;;;;;;;5.07;4.60;;;33.10;1.00;;;;;;5040870;28;20509;-81
2021/06/18 09:45:04;;;;;;;5.23;4.67;;;34.40;1.00;;;;;;5036692;28;20619;-79
2021/06/18 09:47:31;;;;;;;7.50;4.93;;;35.60;1.00;;;;;;5038823;28;20426;-81
2021/06/18 09:49:58;;;;;;;6.20;4.60;;;36.60;1.00;;;;;;5037153;28;20464;-81
2021/06/18 09:52:26;;;;;;;4.73;4.27;;;37.10;1.00;;;;;;5034189;28;23021;-79
2021/06/18 09:54:54;;;;;;;4.83;4.43;;;37.40;1.00;;;;;;5029240;28;20968;-81
2021/06/18 09:57:24;;;;;;;6.93;4.40;;;38.00;1.00;;;;;;5034893;28;20543;-82
2021/06/18 09:59:54;;;;;;;11.73;4.93;;;38.40;1.00;;;;;;5035257;28;20428;-79
2021/06/18 10:02:22;;;;;;;5.80;5.30;;;38.90;1.00;;;;;;5045648;28;20434;-80
2021/06/18 10:04:51;;;;;;;5.03;4.63;;;39.10;1.00;;;;;;5041984;28;21362;-84
2021/06/18 10:07:21;;;;;;;6.40;4.40;;;39.30;1.00;;;;;;5039064;28;20456;-84
2021/06/18 10:09:48;;;;;;;5.17;4.67;;;39.80;1.00;;;;;;5033193;28;21299;-83
2021/06/18 10:12:16;;;;;;;5.73;5.07;;;39.90;1.00;;;;;;5039398;28;20457;-82
2021/06/18 10:14:44;;;;;;;4.80;4.40;;;40.60;1.00;;;;;;5041488;28;20448;-82
2021/06/18 10:17:11;;;;;;;8.13;4.57;;;40.70;1.00;;;;;;5039416;28;21129;-82
2021/06/18 10:19:38;;;;;;;6.47;4.80;;;41.20;1.00;;;;;;5048976;28;20447;-83
2021/06/18 10:22:11;;;;;;;4.70;4.30;;;41.90;1.00;;;;;;5047217;28;20477;-82
2021/06/18 10:24:42;;;;;;;5.40;4.77;;;42.70;1.00;;;;;;5045323;28;21351;-82
2021/06/18 10:27:10;;;;;;;12.97;4.93;;;42.30;1.00;;;;;;5038072;28;20444;-81
2021/06/18 10:29:40;;;;;;;4.77;4.37;;;41.60;1.00;;;;;;5035837;28;20483;-80
2021/06/18 10:32:34;;;;;;;4.93;4.20;;;41.60;1.00;;;;;;5035331;28;20521;-82
2021/06/18 10:35:03;;;;;;;5.03;4.60;;;41.30;1.00;;;;;;5025478;28;20452;-79
2021/06/18 10:37:32;;;;;;;7.80;5.03;;;41.20;1.00;;;;;;5031377;28;20481;-81
2021/06/18 10:40:06;;;;;;;5.23;4.77;;;40.70;1.00;;;;;;5035473;28;20429;-80
2021/06/18 10:42:33;;;;;;;5.10;4.60;;;40.40;1.00;;;;;;5022651;28;20490;-80
2021/06/18 10:45:01;;;;;;;4.80;4.40;;;40.20;1.00;;;;;;5031888;28;20432;-79
2021/06/18 10:47:57;;;;;;;5.33;4.40;;;40.20;1.00;;;;;;5036806;28;20452;-78
2021/06/18 10:50:49;;;;;;;4.50;4.10;;;40.60;1.00;;;;;;5035969;28;20437;-81
2021/06/18 10:53:23;;;;;;;7.53;4.37;;;41.30;1.00;;;;;;5015924;28;20717;-80
2021/06/18 10:55:53;;;;;;;5.50;4.00;;;41.60;1.00;;;;;;5014429;28;20466;-78
2021/06/18 10:58:20;;;;;;;6.73;4.77;;;41.40;1.00;;;;;;5039604;28;20460;-79
2021/06/18 11:00:46;;;;;;;16.73;5.50;;;42.20;1.00;;;;;;5036951;28;20515;-80
2021/06/18 11:03:17;;;;;;;4.27;3.97;;;42.60;1.00;;;;;;5042372;28;20541;-80
2021/06/18 11:05:47;;;;;;;8.13;4.10;;;42.60;1.00;;;;;;5043581;28;20460;-82
2021/06/18 11:08:27;;;;;;;5.60;4.00;;;43.00;1.00;;;;;;5037934;28;21357;-79
2021/06/18 11:11:03;;;;;;;5.20;4.20;;;43.20;1.00;;;;;;5041577;28;20445;-81
2021/06/18 11:13:30;;;;;;;3.90;3.60;;;43.10;1.00;;;;;;5041525;28;20512;-81
2021/06/18 11:15:58;;;;;;;4.23;3.87;;;43.00;1.00;;;;;;5045981;28;20536;-82
2021/06/18 11:18:41;;;;;;;4.70;3.60;;;43.50;1.00;;;;;;5044388;28;21364;-83
2021/06/18 11:21:10;;;;;;;6.00;4.27;;;44.00;1.00;;;;;;5042361;28;20528;-82
2021/06/18 11:23:57;;;;;;;4.83;3.53;;;44.60;1.00;;;;;;5045022;28;21421;-82
2021/06/18 11:26:25;;;;;;;3.83;3.50;;;44.70;1.00;;;;;;5045832;28;20515;-82
2021/06/18 11:29:04;;;;;;;3.53;3.23;;;45.00;1.00;;;;;;5045844;28;20472;-81
2021/06/18 11:31:52;;;;;;;4.67;3.67;;;45.00;1.00;;;;;;5046476;28;20802;-84
2021/06/18 11:34:28;;;;;;;6.13;3.97;;;45.00;1.00;;;;;;5038082;28;20463;-81
2021/06/18 11:36:58;;;;;;;4.80;4.30;;;45.20;1.00;;;;;;5039237;28;20449;-78
2021/06/18 11:39:27;;;;;;;5.27;4.43;;;45.40;1.00;;;;;;5030939;28;20448;-80
2021/06/18 11:42:15;;;;;;;6.03;4.20;;;45.60;1.00;;;;;;5017171;28;20544;-80
2021/06/18 11:44:42;;;;;;;5.10;3.70;;;46.40;1.00;;;;;;5036484;28;20555;-78
2021/06/18 11:47:09;;;;;;;4.00;3.40;;;46.30;1.00;;;;;;5033839;28;20448;-81
2021/06/18 11:49:44;;;;;;;3.80;3.50;;;45.80;1.00;;;;;;5036987;28;20519;-80
2021/06/18 11:52:12;;;;;;;4.80;4.40;;;44.90;1.00;;;;;;5029795;28;20460;-80
2021/06/18 11:54:44;;;;;;;3.50;3.03;;;44.60;1.00;;;;;;5030001;28;20487;-81
2021/06/18 11:57:20;;;;;;;4.23;3.83;;;45.00;1.00;;;;;;5037674;28;20450;-79
2021/06/18 11:59:59;;;;;;;6.23;4.00;;;45.40;1.00;;;;;;5033444;28;23363;-78
2021/06/18 12:02:32;;;;;;;4.57;3.73;;;45.70;1.00;;;;;;5031775;28;20525;-79
2021/06/18 12:05:04;;;;;;;4.80;4.40;;;45.40;1.00;;;;;;5030411;28;20584;-79
2021/06/18 12:07:31;;;;;;;4.20;3.80;;;45.10;1.00;;;;;;5029582;28;20559;-78
2021/06/18 12:09:58;;;;;;;4.13;3.73;;;45.00;1.00;;;;;;5037996;28;20448;-78
2021/06/18 12:12:25;;;;;;;3.80;3.50;;;45.00;1.00;;;;;;5012377;28;20506;-79
2021/06/18 12:14:57;;;;;;;12.67;3.80;;;45.10;1.00;;;;;;5036777;28;20481;-78
2021/06/18 12:17:24;;;;;;;5.77;4.60;;;45.50;1.00;;;;;;5031648;28;20543;-80
2021/06/18 12:19:53;;;;;;;5.17;3.70;;;45.60;1.00;;;;;;5029961;28;20485;-78
2021/06/18 12:22:23;;;;;;;5.60;3.83;;;46.20;1.00;;;;;;5029490;28;21176;-79
2021/06/18 12:24:52;;;;;;;4.93;4.43;;;46.20;1.00;;;;;;5027166;28;20544;-78
2021/06/18 12:27:21;;;;;;;4.03;3.73;;;46.60;1.00;;;;;;5024368;28;20435;-77
2021/06/18 12:29:52;;;;;;;4.17;3.53;;;47.10;1.00;;;;;;5026631;28;20949;-79
2021/06/18 12:32:20;;;;;;;3.83;3.53;;;47.40;1.00;;;;;;5030459;28;20445;-83
2021/06/18 12:34:48;;;;;;;4.83;4.33;;;47.50;1.00;;;;;;5032179;28;20459;-80
2021/06/18 12:37:15;;;;;;;3.77;3.47;;;48.10;1.00;;;;;;5032650;28;20611;-78
2021/06/18 12:39:53;;;;;;;3.60;3.23;;;48.20;1.00;;;;;;5035076;28;20486;-80
2021/06/18 12:42:26;;;;;;;3.60;3.30;;;47.40;1.00;;;;;;5039308;28;21003;-80
2021/06/18 12:45:17;;;;;;;6.40;3.80;;;46.30;1.00;;;;;;5036190;28;20599;-79
2021/06/18 12:47:46;;;;;;;4.10;3.80;;;45.30;1.00;;;;;;5012685;28;20457;-81
2021/06/18 12:50:31;;;;;;;4.57;4.20;;;44.40;1.00;;;;;;5029336;28;20799;-80
2021/06/18 12:53:00;;;;;;;4.53;4.13;;;44.70;1.00;;;;;;5030750;28;20540;-79
2021/06/18 12:55:29;;;;;;;7.37;5.10;;;44.90;1.00;;;;;;5029604;28;20456;-80